Date,TemperatureHighF,TemperatureAvgF,TemperatureLowF,DewpointHighF,DewpointAvgF,DewpointLowF,HumidityHigh,HumidityAvg,HumidityLow,PressureMaxIn,PressureMinIn,WindSpeedMaxMPH,WindSpeedAvgMPH,GustSpeedMaxMPH,PrecipitationSumIn
2013-1-1,80.1,72.7,61.0,63.4,60.7,57.5,90,66,55,30.18,30.03,13,4,13,0.00
2013-1-2,82.6,69.7,56.8,68.6,63.8,56.2,99,83,56,30.07,29.96,11,2,11,0.00
2013-1-3,83.3,73.3,64.0,70.5,67.1,62.5,97,82,64,30.11,30.00,10,2,10,0.08
2013-1-4,82.4,71.8,64.0,72.0,67.7,63.0,99,88,71,30.20,30.08,9,2,9,0.06
2013-1-5,77.0,68.8,63.5,71.1,67.1,63.2,99,95,79,30.23,30.14,8,1,8,0.31
2013-1-6,82.8,72.8,62.1,72.8,68.8,61.8,99,88,72,30.17,30.04,11,2,11,0.01
2013-1-7,79.0,71.3,65.7,71.1,68.6,65.4,99,92,75,30.14,30.04,8,2,9,0.19
2013-1-8,83.7,76.1,70.0,75.1,71.8,68.8,97,87,74,30.19,30.05,14,4,14,1.15
2013-1-9,83.8,78.8,73.8,73.5,72.0,69.5,93,80,71,30.26,30.14,13,6,13,0.01
2013-1-10,82.8,76.8,74.3,70.4,67.9,64.0,85,74,57,30.27,30.17,14,6,14,0.00
2013-1-11,82.4,76.1,73.2,72.1,69.1,67.2,88,79,68,30.24,30.13,13,5,13,0.01
2013-1-12,83.7,76.4,71.4,69.9,67.5,65.3,84,74,61,30.16,30.07,11,5,11,0.01
2013-1-13,83.7,76.0,72.3,69.8,66.4,61.8,84,72,60,30.11,30.05,14,5,14,0.00
2013-1-14,82.4,75.6,70.3,68.3,65.7,62.2,83,72,59,30.15,30.09,13,4,13,0.00
2013-1-15,83.1,75.8,71.4,69.0,66.7,63.4,85,74,60,30.12,29.61,12,4,12,0.00
2013-1-16,84.4,74.1,62.1,71.0,67.1,60.1,97,80,62,30.08,29.99,10,2,10,0.00
2013-1-17,81.9,71.1,60.4,72.1,66.6,52.8,99,86,70,30.06,29.94,14,3,14,0.57
2013-1-18,74.3,64.6,52.9,61.5,54.4,46.9,80,70,59,30.20,30.06,14,5,14,0.01
2013-1-19,73.0,69.4,65.1,70.1,65.0,59.8,99,87,70,30.19,30.08,9,2,9,0.73
2013-1-20,80.8,70.9,62.4,70.7,66.6,62.1,99,87,70,30.12,29.99,12,2,12,0.03
2013-1-21,81.3,70.4,63.7,71.3,67.3,63.1,99,90,72,30.07,29.96,8,2,9,0.25
2013-1-22,77.9,68.3,61.5,63.5,59.3,52.3,98,75,56,30.22,29.99,15,5,15,0.01
2013-1-23,78.1,67.9,57.7,59.8,55.1,51.5,89,65,47,30.30,30.20,15,4,15,0.00
2013-1-24,78.1,65.1,55.9,55.7,52.2,42.3,92,66,37,30.29,30.20,13,3,13,0.00
2013-1-25,79.7,65.3,53.8,61.3,55.6,50.0,92,73,46,30.29,30.18,10,2,10,0.00
2013-1-26,80.6,67.6,56.7,60.6,57.3,51.5,96,72,46,30.26,30.17,10,2,10,0.00
2013-1-27,81.9,70.1,58.3,63.3,60.0,56.8,97,73,49,30.29,30.20,11,3,11,0.00
2013-1-28,83.3,75.3,71.2,68.8,65.3,60.7,85,72,58,30.32,30.23,13,6,13,0.00
2013-1-29,81.0,74.4,70.5,71.3,68.5,66.2,94,82,70,30.23,30.13,13,4,13,0.24
2013-1-30,81.1,74.6,70.9,69.2,66.7,63.3,91,77,65,30.13,29.97,14,5,14,0.00
2013-1-31,71.8,66.1,55.4,70.5,58.6,40.1,98,78,51,30.21,29.94,13,3,13,0.00
2013-2-1,75.9,62.1,50.9,57.2,49.0,38.7,80,63,49,30.27,30.16,15,5,15,0.00
2013-2-2,78.6,62.7,53.2,54.5,48.4,36.6,92,62,41,30.26,30.12,12,2,12,0.00
2013-2-3,77.9,61.0,48.6,53.8,47.6,40.2,99,67,29,30.17,30.07,13,2,13,0.00
2013-2-4,77.5,61.0,46.2,54.6,47.5,39.9,92,65,31,30.14,30.03,12,1,12,0.00
2013-2-5,80.4,66.1,49.8,63.9,57.3,48.8,99,76,49,30.08,30.00,12,2,12,0.00
2013-2-6,82.4,70.2,57.7,68.1,62.6,57.1,99,79,60,30.11,30.02,8,2,10,0.00
2013-2-7,82.8,74.9,69.6,69.8,65.5,62.2,81,73,60,30.08,29.93,10,4,10,0.00
2013-2-8,85.5,73.4,64.6,71.3,66.1,59.2,97,80,48,30.03,29.91,11,3,11,0.00
2013-2-9,83.1,71.5,62.8,68.2,64.0,60.2,99,79,53,30.18,30.01,13,4,13,0.00
2013-2-10,79.0,72.4,70.0,63.9,61.8,60.0,75,69,59,30.27,30.17,14,6,14,0.00
2013-2-11,81.5,74.2,69.1,66.9,64.1,60.9,79,71,60,30.23,30.11,13,5,13,0.00
2013-2-12,83.8,74.5,63.9,71.2,67.8,62.5,98,81,63,30.12,29.97,15,3,15,0.00
2013-2-13,83.8,75.3,67.5,74.2,70.7,67.0,99,86,72,30.01,29.89,15,4,15,0.00
2013-2-14,82.4,71.2,62.8,72.5,68.2,62.5,99,91,72,30.00,29.86,11,2,11,2.60
2013-2-15,74.3,66.7,63.0,68.1,65.4,62.7,99,96,80,30.02,29.93,12,2,12,0.74
2013-2-16,74.0,64.7,52.9,64.5,56.7,43.2,99,77,47,30.08,29.87,14,5,16,0.00
2013-2-17,62.1,51.5,42.8,43.6,28.9,16.3,71,45,21,30.49,30.08,16,6,16,0.00
2013-2-18,72.1,59.4,45.1,57.4,44.7,31.4,71,59,43,30.32,30.21,12,5,12,0.00
2013-2-19,80.8,72.1,60.6,66.7,60.9,52.1,92,68,56,30.20,30.08,14,5,14,0.02
2013-2-20,81.5,70.8,61.3,68.9,65.1,47.5,99,84,59,30.12,30.01,10,2,10,0.01
2013-2-21,84.6,74.3,64.2,70.2,67.3,62.1,97,80,59,30.10,29.99,10,3,10,0.00
2013-2-22,84.4,76.6,71.8,73.8,70.5,66.9,90,82,69,30.10,30.01,13,6,13,0.00
2013-2-23,84.4,76.4,69.6,73.6,70.9,67.7,97,84,70,30.05,29.92,16,5,16,0.98
2013-2-24,88.2,76.7,69.6,75.2,71.9,68.5,99,86,56,30.00,29.90,9,3,9,0.01
2013-2-25,84.6,75.6,66.4,75.1,71.4,65.7,99,87,72,29.92,29.81,14,3,14,0.00
2013-2-26,84.6,78.4,74.7,74.9,72.5,70.2,94,83,69,29.89,29.80,17,6,17,0.00
2013-2-27,80.1,70.6,62.1,73.8,65.6,61.3,99,85,55,29.96,29.86,9,3,9,0.79
2013-2-28,73.6,64.0,57.4,63.7,53.9,44.6,99,72,38,30.00,29.90,9,3,9,0.00
2013-3-1,68.7,62.1,57.9,56.3,50.5,45.8,81,66,47,29.99,29.90,8,2,9,0.00
2013-3-2,70.2,58.1,48.0,49.3,41.6,34.7,84,56,37,30.03,29.95,15,4,15,0.00
2013-3-3,65.5,54.5,47.1,43.2,40.7,37.6,84,62,40,30.14,29.96,14,4,14,0.00
2013-3-4,69.1,53.4,38.8,44.9,37.0,28.7,89,58,24,30.21,30.12,13,4,13,0.00
2013-3-5,77.4,62.3,44.2,58.1,52.3,42.5,95,72,50,30.18,30.08,12,3,12,0.00
2013-3-6,80.6,65.1,52.2,65.1,51.5,32.6,96,66,24,30.09,29.94,15,6,15,0.00
2013-3-7,72.3,54.4,45.7,55.8,41.4,34.9,80,62,45,30.16,30.07,10,5,11,0.00
2013-3-8,76.5,63.0,49.6,54.1,50.7,45.0,97,68,36,30.20,30.11,12,3,12,0.00
2013-3-9,79.3,65.0,51.1,58.4,53.2,47.5,95,68,46,30.19,29.51,13,4,13,0.00
2013-3-10,80.1,71.6,65.7,61.1,56.5,51.9,75,60,46,30.17,30.07,15,5,15,0.00
2013-3-11,81.3,72.5,68.2,63.3,60.8,58.6,76,67,50,30.12,29.96,13,6,13,0.00
2013-3-12,82.2,74.5,70.3,71.5,66.5,62.2,87,76,67,30.00,29.91,14,6,14,0.00
2013-3-13,78.3,66.3,55.9,66.0,56.1,43.6,96,72,36,30.12,29.97,13,4,13,0.00
2013-3-14,73.6,60.7,52.7,52.6,47.7,41.0,94,65,33,30.20,30.08,18,5,18,0.00
2013-3-15,75.9,62.6,50.4,55.6,50.7,44.4,85,67,47,30.25,30.15,12,4,12,0.00
2013-3-16,79.2,65.0,51.3,58.4,53.3,50.1,99,70,41,30.19,30.09,13,2,13,0.00
2013-3-17,79.5,68.8,55.8,62.0,58.5,52.8,93,71,53,30.15,30.03,12,3,12,0.00
2013-3-18,83.3,73.1,66.7,71.1,66.3,61.4,97,80,63,30.08,29.96,16,4,16,0.72
2013-3-19,81.1,72.3,66.0,70.9,68.4,65.1,97,88,65,30.01,29.83,9,2,12,0.01
2013-3-20,83.7,71.8,61.2,73.1,65.9,58.2,99,83,59,29.97,29.80,13,2,13,0.00
2013-3-21,75.2,62.0,52.5,61.8,55.7,47.4,94,82,40,29.95,29.82,10,3,10,0.00
2013-3-22,79.5,66.0,48.6,70.2,58.2,47.1,98,78,54,30.01,29.90,12,3,12,0.02
2013-3-23,86.2,77.4,70.0,76.5,72.7,68.8,97,86,70,29.99,29.80,14,4,14,0.02
2013-3-24,92.8,80.4,72.0,74.5,72.2,66.9,96,78,50,29.89,29.67,20,6,20,0.21
2013-3-25,83.8,74.1,63.7,73.0,59.6,35.3,97,66,30,29.98,29.74,12,3,12,0.05
2013-3-26,72.9,61.5,51.3,40.9,36.3,29.0,57,40,22,30.21,29.98,14,6,14,0.00
2013-3-27,71.1,57.2,44.2,99.9,40.8,29.9,83,55,37,30.25,30.17,15,4,15,0.00
2013-3-28,75.2,60.9,47.7,51.3,44.6,33.0,85,58,27,30.27,30.18,13,3,13,0.00
2013-3-29,79.3,64.8,50.4,54.3,49.5,42.3,81,60,38,30.29,30.20,12,3,12,0.00
2013-3-30,79.7,69.9,61.3,55.4,52.4,48.9,70,55,37,30.27,30.17,12,4,12,0.00
2013-3-31,83.0,73.7,64.6,67.1,62.4,54.1,84,68,55,30.20,30.05,13,5,13,0.00
2013-4-1,90.9,76.8,69.1,72.8,67.4,61.1,91,75,40,30.06,29.94,17,4,17,0.09
2013-4-2,85.3,74.3,65.1,68.8,66.3,64.0,98,78,53,30.08,29.99,10,3,10,0.00
2013-4-3,86.5,77.6,71.6,72.2,69.4,66.7,87,77,61,30.07,30.00,13,5,13,0.00
2013-4-4,85.5,75.5,68.4,74.4,70.7,67.2,97,85,68,30.05,29.91,15,5,15,0.94
2013-4-5,73.4,68.7,64.6,71.5,66.6,63.8,98,93,85,29.98,29.82,12,4,12,0.60
2013-4-6,82.2,69.4,57.6,68.0,62.2,56.8,98,80,56,30.21,29.91,14,5,14,0.01
2013-4-7,82.8,74.7,70.3,66.3,63.3,60.7,77,68,56,30.14,30.02,13,5,13,0.00
2013-4-8,85.1,74.4,58.6,66.3,62.3,56.2,95,68,50,30.14,30.04,10,3,10,0.00
2013-4-9,85.5,76.7,72.7,70.6,67.6,64.9,84,74,56,30.16,30.05,13,6,13,0.00
2013-4-10,87.3,78.7,73.0,74.7,71.0,66.4,86,78,65,30.10,30.00,14,6,14,0.00
2013-4-11,86.0,78.8,75.2,74.6,72.6,70.7,90,82,69,30.02,29.90,14,7,14,0.00
2013-4-12,88.3,80.3,76.3,78.1,75.3,73.7,92,85,71,29.95,29.27,15,6,15,0.03
2013-4-13,89.6,77.2,70.0,76.5,73.0,67.7,96,88,65,29.97,29.87,12,2,12,0.97
2013-4-14,86.7,76.5,69.8,76.0,73.5,68.6,99,91,70,29.96,29.91,11,3,11,0.00
2013-4-15,90.3,78.2,70.2,78.5,73.5,68.5,98,86,62,30.06,29.93,16,3,16,1.40
2013-4-16,88.9,78.1,69.3,79.6,73.4,69.0,99,87,68,30.12,30.02,13,3,13,0.07
2013-4-17,87.6,79.2,73.2,71.3,69.4,66.9,87,73,56,30.11,30.02,13,4,13,0.00
2013-4-18,88.5,80.9,74.8,75.7,72.0,67.8,85,75,62,30.07,29.98,13,5,13,0.00
2013-4-19,89.1,82.0,77.2,76.3,73.7,71.1,90,77,60,30.05,29.97,15,6,15,0.01
2013-4-20,90.3,78.5,71.6,78.5,74.0,69.7,98,86,67,30.08,29.97,13,4,13,0.27
2013-4-21,87.1,78.3,71.1,75.9,72.5,69.6,98,83,64,30.10,29.99,13,4,13,0.00
2013-4-22,86.4,75.2,69.6,74.4,70.4,67.8,97,86,62,30.05,29.93,10,3,10,0.56
2013-4-23,86.7,76.0,66.6,70.5,66.5,61.3,98,74,54,30.09,29.95,15,5,15,0.00
2013-4-24,87.8,78.6,71.8,67.4,64.3,60.5,76,62,48,30.14,30.03,12,4,12,0.00
2013-4-25,85.9,77.6,71.2,65.1,62.8,60.4,75,61,47,30.20,30.08,9,4,11,0.00
2013-4-26,86.7,77.3,68.9,68.1,64.6,60.9,79,66,52,30.26,30.12,14,4,14,0.00
2013-4-27,87.6,78.5,72.0,67.6,64.6,60.4,75,63,47,30.21,30.09,12,5,12,0.00
2013-4-28,88.0,78.7,72.7,66.0,64.0,61.4,74,61,45,30.12,30.00,13,6,13,0.00
2013-4-29,102.5,79.0,73.9,71.6,68.2,62.0,83,70,53,30.04,29.94,13,5,13,0.00
2013-4-30,88.3,77.3,70.5,73.9,70.7,67.9,98,81,61,30.00,29.92,10,3,15,0.73
2013-5-1,86.7,75.1,70.0,77.5,70.7,68.8,98,87,67,30.00,29.92,10,2,10,0.43
2013-5-2,80.1,72.6,68.4,74.3,70.7,67.8,99,94,79,29.94,29.80,16,4,16,2.70
2013-5-3,87.5,75.2,68.7,73.1,70.2,67.5,99,86,57,29.81,29.67,10,4,10,2.79
2013-5-4,91.8,76.9,66.7,72.2,68.6,66.1,99,78,50,29.79,29.68,10,3,11,0.01
2013-5-5,87.8,74.8,61.8,69.5,62.2,51.0,96,68,33,29.93,29.75,11,4,11,0.00
2013-5-6,87.8,71.5,55.0,64.6,59.4,51.5,97,68,42,30.01,29.91,8,2,9,0.00
2013-5-7,89.4,73.8,59.9,66.8,60.6,55.4,86,65,40,30.06,29.40,13,4,13,0.00
2013-5-8,88.7,74.8,60.8,66.1,62.1,56.9,96,67,39,30.14,30.03,10,2,10,0.00
2013-5-9,89.8,78.3,63.0,74.4,68.2,59.8,92,72,54,30.14,30.06,11,3,11,0.00
2013-5-10,90.3,82.1,73.6,75.7,73.4,69.4,88,76,56,30.13,30.02,12,4,12,0.00
2013-5-11,90.0,79.8,72.1,77.3,74.1,70.0,99,84,65,30.08,29.98,13,4,13,0.01
2013-5-12,90.5,77.8,69.6,77.1,72.3,69.0,99,85,58,30.06,29.94,13,2,13,1.24
2013-5-13,90.3,78.2,70.5,74.0,70.2,65.9,99,78,47,30.08,29.99,13,3,13,0.00
2013-5-14,86.0,78.2,72.7,66.6,60.9,55.6,78,56,42,30.18,30.07,14,6,14,0.00
2013-5-15,86.9,78.1,71.1,66.1,61.6,55.8,70,58,43,30.19,30.09,12,5,12,0.00
2013-5-16,87.8,78.3,70.2,66.2,62.3,58.1,72,59,46,30.12,30.04,12,4,12,0.00
2013-5-17,89.6,80.2,71.6,75.2,70.5,62.8,87,73,59,30.09,30.01,10,4,12,0.00
2013-5-18,89.4,80.0,72.1,75.9,72.7,69.8,98,79,62,30.11,25.63,13,4,13,0.05
2013-5-19,89.6,81.7,74.7,72.8,70.6,66.9,85,70,54,30.10,30.00,10,4,10,0.00
2013-5-20,82.0,75.9,69.1,76.2,72.8,68.3,98,90,77,30.08,29.98,11,3,11,3.04
2013-5-21,86.5,75.9,68.9,76.5,72.1,68.5,99,89,64,30.05,28.83,14,4,14,0.21
2013-5-22,87.3,78.0,73.2,75.7,73.1,70.4,96,85,64,29.98,29.89,12,3,12,0.48
2013-5-23,99.3,83.2,76.3,77.0,74.0,65.0,97,76,35,30.00,29.93,10,3,10,0.00
2013-5-24,92.9,83.8,75.4,77.9,74.9,69.3,99,76,48,30.05,29.94,9,3,13,0.00
2013-5-25,89.1,80.8,71.1,75.2,68.7,64.4,96,69,47,30.16,30.04,13,5,14,0.08
2013-5-26,89.1,80.7,73.6,69.0,65.4,56.5,77,61,49,30.18,30.10,13,5,13,0.00
2013-5-27,89.4,80.5,74.5,73.7,70.2,63.0,88,71,60,30.16,30.07,14,5,14,0.00
2013-5-28,85.1,79.2,75.2,75.5,73.4,71.6,94,83,69,30.12,30.04,13,6,14,0.30
2013-5-29,83.7,76.5,70.5,75.9,73.1,69.2,99,90,67,30.09,30.02,18,6,18,4.94
2013-5-30,84.2,78.4,72.5,76.7,73.1,68.6,95,84,71,30.08,30.01,20,8,20,0.32
2013-5-31,88.0,79.7,74.8,77.5,74.9,70.4,97,86,71,30.06,30.00,18,6,18,0.52
2013-6-1,88.3,78.2,73.2,79.2,75.6,72.9,99,92,73,30.03,29.96,11,2,11,1.87
2013-6-2,90.7,79.7,71.0,81.0,74.6,33.5,99,86,63,30.00,29.92,11,2,11,0.00
2013-6-3,89.1,79.6,71.6,78.5,74.9,71.0,99,86,69,30.03,29.91,10,2,10,0.09
2013-6-4,86.4,79.5,73.2,78.2,75.7,72.6,99,89,73,30.05,29.95,7,1,7,0.03
2013-6-5,86.0,81.7,78.8,79.7,77.3,75.1,91,87,78,30.02,29.90,9,3,9,0.04
2013-6-6,81.0,79.8,75.9,79.2,78.0,73.6,99,94,88,29.91,29.80,13,7,14,0.88
2013-6-7,92.1,77.8,73.6,79.5,74.9,72.9,99,91,64,29.98,29.83,12,3,12,0.71
2013-6-8,89.2,79.0,73.2,82.3,76.6,72.9,99,93,78,30.10,29.96,9,2,9,0.59
2013-6-9,91.4,84.3,79.0,78.9,76.7,75.1,92,79,66,30.12,30.04,10,6,12,0.00
2013-6-10,93.6,85.0,80.1,79.8,77.6,75.8,89,79,64,30.09,30.01,13,5,13,0.00
2013-6-11,92.7,83.9,79.7,80.3,77.7,74.6,92,82,62,30.09,29.35,11,4,11,0.00
2013-6-12,95.2,82.3,76.5,80.9,77.3,75.4,99,86,62,30.08,30.02,7,1,10,0.00
2013-6-13,93.0,81.8,73.8,79.7,75.3,71.2,99,82,61,30.05,29.94,10,2,10,0.00
2013-6-14,98.4,83.0,74.8,78.1,74.2,71.0,99,77,47,29.97,29.88,11,3,11,0.00
2013-6-15,93.9,84.1,74.1,78.4,75.8,73.0,99,77,58,30.05,29.92,9,3,9,0.00
2013-6-16,95.4,84.9,74.1,80.5,76.9,73.2,99,78,59,30.09,30.02,11,3,11,0.00
2013-6-17,95.0,86.2,77.0,79.6,77.0,74.3,92,75,59,30.08,30.01,13,4,13,0.00
2013-6-18,93.9,85.8,78.3,78.5,76.8,74.1,92,75,59,30.07,29.99,13,4,13,0.00
2013-6-19,93.7,84.7,76.5,81.1,77.0,74.4,99,79,61,30.05,29.99,12,3,12,0.01
2013-6-20,94.1,84.0,73.9,78.2,74.8,69.0,89,75,57,30.09,30.02,13,3,13,0.00
2013-6-21,95.2,86.2,78.6,77.4,75.4,73.7,86,71,56,30.13,30.03,13,5,13,0.00
2013-6-22,95.4,86.1,78.8,76.9,74.9,72.8,85,70,53,30.11,30.04,10,5,10,0.00
2013-6-23,93.4,84.8,79.5,79.1,75.3,70.6,85,74,59,30.22,30.05,13,6,13,0.05
2013-6-24,94.8,86.2,80.2,77.7,74.9,72.0,81,70,55,30.17,30.08,13,6,13,0.00
2013-6-25,94.3,84.9,77.9,80.1,76.5,72.4,94,77,60,30.13,30.05,13,6,13,0.06
2013-6-26,94.3,85.0,78.8,77.8,76.0,73.2,89,75,56,30.08,30.01,13,5,13,0.03
2013-6-27,93.4,82.8,76.6,80.5,76.0,72.6,94,80,61,30.06,29.95,10,2,10,0.30
2013-6-28,92.7,82.4,73.9,78.5,75.3,71.2,99,81,55,29.99,29.86,13,3,13,0.33
2013-6-29,92.7,81.3,73.9,79.3,76.1,72.7,99,86,62,29.93,29.81,14,3,14,0.08
2013-6-30,92.1,81.0,75.4,78.9,75.8,72.3,98,85,60,29.94,29.84,14,4,14,0.35
2013-7-1,90.1,82.4,76.6,80.7,76.9,73.7,96,84,65,30.04,29.91,13,5,13,0.14
2013-7-2,92.7,83.5,76.5,80.8,77.9,75.0,97,84,68,30.11,29.98,12,5,12,0.13
2013-7-3,91.4,82.1,76.3,80.6,77.2,73.7,98,85,70,30.13,30.05,16,6,16,0.92
2013-7-4,91.8,84.6,79.2,80.3,77.2,74.0,90,79,65,30.15,30.07,13,7,13,0.09
2013-7-5,89.1,82.4,75.0,79.7,77.0,33.2,99,84,69,30.15,30.06,14,7,14,1.27
2013-7-6,92.7,84.7,80.1,78.7,76.0,73.9,85,76,62,30.12,30.03,13,7,13,0.00
2013-7-7,94.5,85.6,79.7,79.2,76.4,74.1,87,74,61,30.10,30.03,11,5,11,0.00
2013-7-8,94.5,85.5,79.3,77.8,74.9,72.8,83,71,53,30.15,30.07,10,4,10,0.00
2013-7-9,93.6,83.3,75.7,77.2,73.8,71.2,90,74,57,30.14,30.05,12,3,12,0.08
2013-7-10,90.7,79.1,70.5,78.3,74.7,70.2,99,87,66,30.09,30.00,9,3,9,1.30
2013-7-11,92.5,83.5,74.8,79.7,76.1,72.1,98,79,64,30.05,29.94,13,3,13,0.00
2013-7-12,93.2,80.2,72.1,79.0,75.0,44.1,99,86,57,29.97,29.90,11,2,11,0.68
2013-7-13,90.5,76.4,72.5,79.8,74.4,72.0,99,94,70,30.03,24.05,9,2,9,1.10
2013-7-14,91.8,79.3,72.3,78.1,74.7,72.0,99,87,61,30.10,29.98,12,4,12,0.21
2013-7-15,91.4,80.3,71.8,82.9,74.8,71.5,99,84,62,30.09,30.01,14,3,14,1.12
2013-7-16,88.3,78.1,73.5,76.8,73.2,70.0,95,85,61,30.15,30.05,20,6,20,0.16
2013-7-17,87.6,79.6,75.7,76.6,74.1,71.6,94,83,69,30.15,29.00,9,4,9,0.07
2013-7-18,87.8,77.9,72.9,79.1,74.6,70.9,99,90,73,30.13,30.06,15,3,15,0.87
2013-7-19,91.4,81.5,73.0,80.7,77.0,72.7,99,87,69,30.13,30.05,10,3,12,0.00
2013-7-20,89.8,82.6,76.9,80.6,77.7,73.4,93,85,73,30.12,30.03,13,4,13,0.00
2013-7-21,91.0,81.5,73.2,81.1,77.2,71.7,99,87,73,30.16,30.05,10,2,10,1.40
2013-7-22,92.7,83.7,74.1,79.2,77.2,73.8,99,82,62,30.15,30.07,11,4,11,0.03
2013-7-23,92.8,84.5,76.8,80.7,76.8,72.9,96,79,60,30.11,29.97,12,4,12,0.00
2013-7-24,97.2,84.9,77.0,78.0,75.0,70.1,95,74,46,30.02,29.92,13,4,13,0.00
2013-7-25,98.8,85.6,75.4,77.7,75.2,71.6,96,73,49,30.01,29.91,9,4,10,0.00
2013-7-26,92.7,81.1,77.5,78.8,76.2,72.7,94,85,63,30.02,29.93,9,3,9,0.19
2013-7-27,91.9,81.0,76.5,80.2,75.9,73.5,97,85,63,30.00,29.93,11,2,11,0.00
2013-7-28,90.9,79.7,73.8,80.1,76.1,52.5,99,89,69,30.07,29.95,10,2,10,1.81
2013-7-29,93.2,82.7,73.9,81.2,77.3,73.6,99,85,67,30.14,30.02,12,3,12,0.24
2013-7-30,96.3,86.0,75.9,81.5,78.5,69.9,95,79,60,30.17,30.08,11,4,11,0.00
2013-7-31,94.2,86.3,80.4,80.0,76.9,73.3,89,74,59,30.12,30.01,11,5,11,0.00
2013-8-1,93.6,85.7,80.2,78.2,75.4,73.3,83,72,58,30.06,29.95,11,5,11,0.00
2013-8-2,91.8,81.1,75.6,77.9,74.5,71.5,95,82,56,30.05,29.91,9,3,9,0.13
2013-8-3,88.9,77.8,71.8,79.6,75.2,70.9,99,92,73,30.13,30.02,18,1,18,0.80
2013-8-4,92.3,79.8,73.8,81.3,76.2,72.4,99,90,67,30.11,29.98,13,2,13,0.57
2013-8-5,94.5,80.8,75.4,82.7,76.8,72.5,99,88,60,30.04,29.94,10,2,10,0.24
2013-8-6,92.8,82.8,73.9,81.0,77.0,73.6,99,84,66,29.98,29.90,9,2,9,0.00
2013-8-7,92.3,83.9,76.1,80.4,77.6,74.2,97,82,65,30.04,28.94,13,4,13,0.08
2013-8-8,94.5,86.3,81.1,80.9,77.4,74.9,86,75,60,30.02,29.93,13,6,13,0.00
2013-8-9,91.8,84.3,80.6,79.6,75.5,71.7,85,75,59,30.07,29.95,13,6,13,0.02
2013-8-10,94.0,86.2,80.4,80.0,77.4,75.1,87,76,62,30.12,30.03,12,6,12,0.00
2013-8-11,95.0,86.8,81.0,80.6,77.6,74.5,86,75,59,30.14,30.07,11,5,11,0.02
2013-8-12,94.8,85.3,76.5,79.6,75.8,71.4,90,74,59,30.11,30.01,9,3,9,0.00
2013-8-13,94.8,86.4,80.2,79.5,76.7,74.6,88,74,57,30.05,29.96,12,4,12,0.00
2013-8-14,94.5,85.4,75.6,78.4,76.1,16.0,97,75,58,30.02,29.93,13,4,13,0.00
2013-8-15,89.4,81.9,74.3,79.7,76.8,73.3,99,85,70,30.23,29.96,12,4,12,1.82
2013-8-16,94.5,85.2,77.7,81.9,78.9,74.9,97,82,66,30.05,29.98,11,3,11,0.00
2013-8-17,93.9,86.8,81.5,82.1,79.6,77.2,89,80,66,30.08,30.00,12,4,12,0.02
2013-8-18,93.6,86.1,81.7,81.0,78.2,75.9,87,78,59,30.08,30.00,11,5,11,0.01
2013-8-19,94.8,86.6,81.0,80.2,78.0,76.2,89,76,60,30.08,29.97,13,5,13,0.00
2013-8-20,95.0,86.0,77.5,79.6,77.0,71.3,95,75,61,30.07,29.98,13,5,13,0.44
2013-8-21,90.5,83.6,77.4,82.0,79.0,75.6,99,86,75,30.08,30.00,12,5,12,0.21
2013-8-22,93.2,86.5,79.5,81.6,78.8,74.0,92,79,66,30.06,29.96,12,5,12,0.00
2013-8-23,94.5,85.2,80.2,80.7,77.9,75.7,92,79,63,30.01,29.94,12,4,12,0.00
2013-8-24,94.6,85.7,77.4,80.0,77.1,72.2,96,76,60,30.10,29.97,9,3,9,0.00
2013-8-25,92.1,83.1,77.0,78.4,75.8,72.9,93,79,63,30.15,30.03,8,3,9,0.00
2013-8-26,93.9,81.8,72.0,79.2,75.6,71.7,99,83,59,30.12,30.01,12,3,15,0.98
2013-8-27,87.8,78.4,72.5,79.4,74.0,72.0,99,87,62,30.05,29.97,8,1,9,0.06
2013-8-28,92.7,82.7,75.4,78.9,75.3,70.8,96,79,62,30.04,29.95,12,3,12,0.04
2013-8-29,92.7,82.9,72.7,80.2,76.0,70.4,99,81,64,30.02,29.93,11,3,11,0.00
2013-8-30,93.7,84.2,75.6,78.0,75.5,72.7,97,77,54,30.00,29.90,12,3,12,0.00
2013-8-31,93.4,81.7,73.9,80.4,75.1,70.3,95,81,62,29.98,29.91,8,3,10,0.02
2013-9-1,92.7,80.5,72.0,80.6,75.6,70.7,99,86,70,30.00,29.93,8,1,9,0.00
2013-9-2,94.1,78.7,72.1,80.5,75.2,71.8,99,90,62,30.03,29.94,17,2,17,1.09
2013-9-3,92.3,81.2,70.5,81.7,75.7,70.2,99,85,63,30.02,29.93,8,2,9,0.02
2013-9-4,92.7,84.8,78.3,82.0,78.2,74.4,91,81,69,30.06,29.94,10,2,10,0.00
2013-9-5,93.6,85.3,78.8,83.1,78.8,76.4,97,82,67,30.07,29.99,10,3,10,0.30
2013-9-6,94.6,85.7,79.7,81.6,78.7,76.2,96,80,63,30.03,29.93,8,3,8,0.02
2013-9-7,91.0,79.5,72.7,80.2,75.1,70.6,99,87,67,29.98,29.90,11,1,11,0.10
2013-9-8,92.5,80.7,72.5,79.8,75.4,72.2,99,85,65,29.94,29.85,8,1,8,0.02
2013-9-9,92.3,81.5,71.6,82.1,75.7,70.5,99,84,64,30.20,29.89,12,3,12,2.13
2013-9-10,90.5,83.4,79.2,78.9,75.9,72.1,88,78,68,30.04,29.95,13,4,13,0.01
2013-9-11,85.5,80.5,73.4,79.9,75.7,71.3,98,86,78,30.07,29.97,14,4,14,0.62
2013-9-12,87.6,80.2,74.1,79.5,76.7,73.8,99,89,75,30.01,29.89,8,1,8,2.72
2013-9-13,90.9,81.4,72.5,81.4,76.5,72.2,99,86,71,29.91,29.80,10,2,10,0.40
2013-9-14,92.7,83.6,73.9,78.9,76.0,72.9,99,79,62,29.97,29.81,9,3,9,0.00
2013-9-15,89.1,81.3,74.1,79.6,76.0,71.2,99,84,73,30.06,29.91,15,3,15,1.00
2013-9-16,87.8,81.1,79.1,80.6,77.2,75.1,95,88,78,30.04,29.96,13,5,13,0.07
2013-9-17,82.0,78.8,74.1,79.2,76.0,73.0,99,91,84,30.04,29.92,10,4,10,1.09
2013-9-18,90.0,79.2,73.2,80.6,75.7,72.3,99,90,71,30.01,29.91,10,2,10,1.58
2013-9-19,92.3,81.7,72.9,80.5,75.7,71.7,99,83,69,30.00,29.09,12,4,12,0.00
2013-9-20,90.9,82.4,76.1,74.9,71.6,68.7,86,71,54,29.99,29.90,12,4,12,0.01
2013-9-21,91.4,82.5,74.5,75.7,72.3,68.6,86,72,59,29.91,29.78,9,3,9,0.00
2013-9-22,91.1,83.2,75.6,80.0,76.3,72.6,95,80,66,29.86,29.75,9,2,9,0.01
2013-9-23,88.3,81.1,76.1,80.2,76.9,73.8,98,88,73,29.98,29.85,13,1,13,0.10
2013-9-24,93.4,79.9,74.1,81.9,76.5,71.6,99,90,65,29.97,29.86,10,2,10,2.33
2013-9-25,91.0,80.3,72.5,81.3,74.6,71.1,98,84,59,29.90,29.78,12,3,12,0.69
2013-9-26,93.2,80.7,74.8,81.5,76.8,71.5,98,89,68,29.86,29.78,14,4,14,0.58
2013-9-27,90.5,80.5,72.9,76.7,74.1,69.0,99,82,58,29.91,29.81,13,3,13,0.00
2013-9-28,90.3,80.1,71.6,78.2,73.8,69.2,99,82,64,29.95,29.86,13,4,13,0.42
2013-9-29,90.0,82.1,73.2,73.8,70.8,68.1,87,69,56,29.96,28.83,8,3,9,0.00
2013-9-30,90.7,81.7,71.1,74.4,71.2,67.2,92,71,55,30.00,29.90,9,3,9,0.00
2013-10-1,91.2,83.8,78.8,76.7,72.9,70.9,78,70,59,30.03,29.95,10,5,10,0.00
2013-10-2,91.4,83.5,79.2,76.2,73.0,70.8,79,71,59,30.10,29.96,12,5,12,0.00
2013-10-3,90.9,83.1,78.1,75.8,73.3,70.7,84,73,58,30.05,29.95,10,3,10,0.00
2013-10-4,92.1,82.7,77.4,74.9,72.0,68.8,81,71,56,30.06,29.98,8,3,8,0.00
2013-10-5,91.9,79.3,68.9,75.4,71.1,66.4,99,77,59,30.03,29.93,10,2,10,0.00
2013-10-6,92.1,83.4,77.2,76.6,73.3,70.2,85,72,56,29.96,29.86,8,3,9,0.00
2013-10-7,94.8,79.2,72.7,77.2,72.7,68.9,99,82,47,29.90,29.80,16,3,16,0.39
2013-10-8,93.0,81.2,74.5,78.9,75.0,68.9,99,83,56,29.92,29.84,10,3,10,0.05
2013-10-9,87.4,77.9,71.2,77.3,72.6,68.1,94,84,73,29.98,29.89,12,4,12,0.00
2013-10-10,90.2,80.1,70.5,76.8,71.8,67.6,98,77,57,30.00,29.94,13,4,13,0.00
2013-10-11,89.4,78.0,67.3,73.3,67.7,63.3,99,72,52,30.01,29.93,12,3,12,0.00
2013-10-12,90.3,78.0,64.8,71.4,67.1,61.9,98,71,52,30.02,29.94,10,2,10,0.00
2013-10-13,89.1,78.8,70.2,70.7,66.1,61.3,89,67,41,30.05,29.96,13,3,13,0.00
2013-10-14,90.3,79.0,68.0,72.1,68.0,64.6,94,71,50,30.01,29.90,9,3,9,0.00
2013-10-15,89.6,78.3,69.8,74.3,70.4,66.9,97,78,60,29.95,29.87,9,3,9,0.00
2013-10-16,90.3,79.0,68.4,74.4,69.4,64.1,96,74,54,29.95,29.88,8,2,8,0.00
2013-10-17,90.5,80.6,69.1,74.1,70.7,65.6,98,73,56,29.96,29.89,8,2,8,0.00
2013-10-18,90.7,81.5,70.3,76.4,72.2,66.9,94,74,61,29.99,29.90,10,3,10,0.00
2013-10-19,90.1,83.0,77.4,75.7,73.2,71.2,82,73,59,29.96,29.88,9,4,9,0.00
2013-10-20,91.8,81.9,74.8,78.9,75.0,71.0,93,80,63,30.35,29.87,9,2,9,0.00
2013-10-21,90.9,82.9,74.8,78.5,75.5,71.3,95,79,66,30.00,29.90,13,4,13,0.00
2013-10-22,92.3,83.6,76.1,79.3,75.9,71.9,88,78,63,29.96,29.83,12,4,12,0.00
2013-10-23,92.8,80.8,75.2,76.6,72.7,67.3,93,77,57,29.95,29.81,13,3,21,0.00
2013-10-24,83.3,76.9,72.1,67.5,65.1,-22.6,79,67,58,30.09,29.93,11,3,18,0.00
2013-10-25,87.1,77.5,67.6,66.7,63.5,61.1,83,63,47,30.15,30.06,14,4,22,0.00
2013-10-26,89.1,77.8,67.3,65.1,62.1,57.8,78,59,43,30.15,30.05,14,3,22,0.00
2013-10-27,88.2,74.6,62.6,68.2,62.6,57.8,86,68,46,30.28,30.02,10,2,10,0.01
2013-10-28,89.1,79.1,72.0,67.1,64.1,60.7,72,61,44,30.14,30.04,8,2,8,0.00
2013-10-29,90.3,79.9,71.6,70.5,66.9,64.3,81,65,52,30.17,30.08,12,3,12,0.00
2013-10-30,89.1,80.4,75.6,69.5,66.8,64.3,73,64,49,30.19,30.08,11,4,11,0.00
2013-10-31,89.2,81.2,76.6,73.6,70.1,65.2,81,70,57,30.11,29.99,10,4,10,0.00
2013-11-1,89.2,81.9,78.1,75.5,72.8,-10.3,81,74,49,30.01,29.88,11,4,11,0.00
2013-11-2,93.0,80.0,69.6,73.7,69.4,60.7,98,73,44,29.93,29.79,9,2,9,0.00
2013-11-3,85.3,75.4,68.2,66.7,62.7,60.0,81,66,50,30.02,29.88,16,5,16,0.00
2013-11-4,86.0,77.7,73.4,68.1,63.2,56.7,78,61,49,30.07,30.00,17,6,17,0.00
2013-11-5,85.5,79.7,76.6,71.2,68.6,64.2,77,69,58,30.09,30.02,15,6,15,0.00
2013-11-6,88.0,79.9,71.1,70.6,68.4,64.8,81,69,54,30.12,29.99,13,4,13,0.00
2013-11-7,90.7,76.5,67.6,73.9,69.1,64.2,98,79,53,30.01,29.91,10,2,10,0.00
2013-11-8,89.1,75.6,70.0,73.1,69.5,65.8,97,83,56,30.03,29.93,16,4,16,0.91
2013-11-9,79.7,76.7,72.9,72.6,71.4,70.0,96,84,77,30.11,30.01,16,6,16,0.26
2013-11-10,88.0,79.4,76.3,74.6,71.3,68.1,82,76,64,30.12,30.04,10,4,10,0.00
2013-11-11,87.6,79.0,74.8,72.9,69.2,65.2,82,72,62,30.11,30.04,9,3,9,0.00
2013-11-12,87.4,78.3,70.5,71.1,68.1,65.4,87,72,55,30.08,29.96,9,2,9,0.00
2013-11-13,78.8,72.2,68.5,66.8,62.8,55.0,90,73,61,30.21,29.99,20,6,20,0.19
2013-11-14,82.2,73.0,68.7,61.7,58.3,54.8,67,60,49,30.25,30.15,17,5,17,0.00
2013-11-15,84.2,77.1,72.7,69.3,66.0,60.7,75,69,61,30.16,30.04,12,4,12,0.00
2013-11-16,81.3,78.0,75.0,74.8,70.2,66.2,92,77,67,30.10,30.03,12,4,12,0.18
2013-11-17,87.6,80.1,76.8,75.1,71.4,68.9,84,75,65,30.09,30.01,11,4,11,0.00
2013-11-18,87.8,77.5,71.6,74.6,71.0,68.4,92,81,65,30.04,29.93,7,1,7,0.22
2013-11-19,87.4,75.3,70.9,75.9,71.5,68.3,99,89,66,29.95,29.86,10,1,10,2.22
2013-11-20,86.2,76.4,68.4,76.9,72.3,68.1,99,88,73,30.06,29.93,8,1,8,0.26
2013-11-21,84.0,76.4,72.5,75.3,71.8,68.9,92,86,73,30.15,30.05,12,3,12,0.60
2013-11-22,84.2,78.0,73.9,73.7,71.3,69.3,88,80,69,30.17,30.08,12,4,12,0.02
2013-11-23,86.2,77.5,68.0,74.7,70.5,34.5,92,80,23,30.09,29.98,9,2,9,0.00
2013-11-24,101.5,69.6,65.5,70.1,65.8,63.4,98,88,77,30.16,29.99,18,4,18,1.00
2013-11-25,76.3,73.2,71.2,69.0,65.4,60.9,84,77,69,30.21,30.06,18,6,18,0.00
2013-11-26,83.7,77.9,72.7,76.1,72.2,-29.3,90,84,1,30.06,29.83,19,6,19,0.06
2013-11-27,125.8,68.9,55.6,74.9,64.7,49.5,96,87,73,30.12,29.79,13,3,13,0.72
2013-11-28,76.5,63.1,46.6,60.6,52.0,43.2,88,69,47,30.25,30.12,12,4,12,0.00
2013-11-29,81.9,71.6,57.7,62.1,58.8,53.6,88,65,50,30.27,30.20,15,4,15,0.00
2013-11-30,79.5,71.3,60.3,70.1,63.0,54.5,93,76,62,30.22,30.11,14,4,14,0.13
2013-12-1,82.8,70.6,62.6,71.4,65.9,58.9,94,86,67,30.11,29.94,9,2,9,2.55
2013-12-2,73.8,67.1,59.9,66.4,63.4,57.7,94,88,71,29.94,29.83,8,2,8,0.02
2013-12-3,80.4,69.5,57.7,65.3,61.6,55.7,94,78,49,30.00,29.90,8,1,8,0.00
2013-12-4,83.5,72.0,62.1,70.3,64.5,59.2,93,78,62,30.10,29.99,7,1,8,0.00
2013-12-5,84.4,76.3,65.7,72.5,68.1,60.7,89,76,67,30.17,30.08,11,2,11,0.00
2013-12-6,84.6,78.0,73.8,72.3,69.1,66.2,80,74,64,30.19,30.10,11,4,11,0.00
2013-12-7,84.9,74.6,66.2,74.2,68.6,61.9,92,82,71,30.23,30.15,10,2,10,0.06
2013-12-8,85.1,78.4,74.7,74.3,70.0,66.8,83,75,65,30.22,30.13,13,4,13,0.00
2013-12-9,85.1,78.7,74.1,71.4,68.8,65.1,81,72,57,30.21,30.11,11,4,11,0.00
2013-12-10,85.5,78.7,69.3,73.1,69.9,64.9,88,75,65,30.17,30.09,10,3,10,0.00
2013-12-11,87.1,75.0,66.2,74.8,68.5,63.8,94,81,60,30.21,30.13,7,1,7,0.00
2013-12-12,80.4,72.5,68.5,71.8,66.4,60.7,94,82,69,30.23,30.14,14,3,14,0.00
2013-12-13,81.7,73.6,69.3,66.9,63.1,58.5,77,70,59,30.21,30.11,18,4,18,0.00
2013-12-14,84.2,78.1,73.9,72.5,69.4,62.1,78,75,69,30.12,30.00,13,5,13,0.00
2013-12-15,83.7,76.6,70.2,74.4,70.0,64.8,89,80,70,30.07,29.93,12,3,12,0.00
2013-12-16,76.8,67.8,59.9,64.8,60.1,55.4,86,77,63,30.16,30.04,9,2,9,0.00
2013-12-17,81.0,66.1,57.4,64.6,57.1,52.2,92,74,51,30.19,30.11,10,2,10,0.00
2013-12-18,79.2,65.6,56.7,60.3,56.0,52.3,93,73,47,30.24,30.14,12,2,12,0.00
2013-12-19,81.1,69.8,55.2,62.6,58.3,51.5,90,68,50,30.25,30.16,11,2,11,0.00
2013-12-20,83.7,77.0,72.3,69.1,65.5,60.3,73,68,60,30.20,30.11,12,4,12,0.00
2013-12-21,85.3,78.9,76.1,72.5,69.1,66.4,76,72,65,30.16,30.07,12,5,12,0.00
2013-12-22,86.2,79.5,77.2,73.0,69.9,68.1,77,73,65,30.17,30.08,15,5,15,0.00
2013-12-23,85.3,78.3,70.7,73.4,69.5,64.4,87,75,68,30.19,30.12,11,4,11,0.00
2013-12-24,86.2,71.7,-33.1,73.1,65.3,-37.0,94,81,62,30.18,30.10,14,3,14,0.04
2013-12-25,79.7,73.6,69.4,66.9,64.0,61.7,79,72,64,30.19,30.11,14,5,14,0.00
2013-12-26,82.1,75.5,72.7,69.8,66.7,64.2,77,74,70,30.17,30.07,10,3,10,0.00
2013-12-27,85.6,77.1,73.2,72.0,67.8,65.5,79,73,64,30.20,30.10,11,4,11,0.00
2013-12-28,82.0,76.9,73.9,71.0,68.1,65.3,85,74,69,30.19,30.04,14,5,14,0.11
2013-12-29,82.6,77.7,74.1,73.0,70.7,69.3,90,79,71,30.05,29.93,12,4,12,0.00
2013-12-30,80.1,72.8,68.7,71.8,68.4,63.3,93,86,75,30.15,29.98,7,2,7,0.05
2013-12-31,82.0,73.2,67.6,67.5,63.5,61.5,83,72,58,30.23,30.11,13,4,13,0.00
2014-1-1,84.6,77.0,73.0,72.1,67.4,62.2,79,72,66,30.21,30.05,14,4,14,0.00
2014-1-2,88.2,78.1,71.4,70.9,66.7,63.8,84,69,48,30.05,29.87,13,4,13,0.00